TimeICT,TemperatureF,Dew PointF,Humidity,Sea Level PressureIn,VisibilityMPH,Wind Direction,Wind SpeedMPH,Gust SpeedMPH,PrecipitationIn,Events,Conditions,WindDirDegrees,DateUTC
12:00 AM,66.2,57.2,73,29.95,4.3,Variable,1.2,-,N/A,,Unknown,0,2014-01-23 17:00:00
12:30 AM,64.4,59.0,83,29.95,4.3,Variable,1.2,-,N/A,,Unknown,0,2014-01-23 17:30:00
1:00 AM,62.6,59.0,88,29.95,4.3,Calm,Calm,-,N/A,,Unknown,0,2014-01-23 18:00:00
7:00 AM,59.0,57.2,94,29.95,1.9,North,2.3,-,N/A,,Mist,350,2014-01-24 00:00:00
7:30 AM,60.8,57.2,88,29.98,1.9,Variable,1.2,-,N/A,,Mist,0,2014-01-24 00:30:00
8:00 AM,60.8,57.2,88,29.98,1.9,North,3.5,-,N/A,,Mist,360,2014-01-24 01:00:00
8:30 AM,64.4,57.2,77,29.98,3.1,North,3.5,-,N/A,,Mist,360,2014-01-24 01:30:00
9:00 AM,66.2,57.2,73,29.98,5.0,NE,4.6,-,N/A,,Unknown,40,2014-01-24 02:00:00
9:30 AM,71.6,55.4,57,29.98,5.0,Variable,1.2,-,N/A,,Unknown,0,2014-01-24 02:30:00
10:00 AM,73.4,53.6,50,29.98,5.0,Variable,1.2,-,N/A,,Unknown,0,2014-01-24 03:00:00
10:30 AM,77.0,53.6,44,29.98,5.0,Variable,2.3,-,N/A,,Unknown,0,2014-01-24 03:30:00
11:30 AM,78.8,51.8,39,29.95,5.6,Variable,2.3,-,N/A,,Unknown,0,2014-01-24 04:30:00
12:00 PM,80.6,51.8,37,29.95,5.6,Variable,2.3,-,N/A,,Unknown,0,2014-01-24 05:00:00
12:30 PM,80.6,51.8,37,29.89,5.6,Variable,3.5,-,N/A,,Unknown,0,2014-01-24 05:30:00
1:00 PM,80.6,51.8,37,29.89,5.6,Variable,3.5,-,N/A,,Unknown,0,2014-01-24 06:00:00
1:30 PM,80.6,51.8,37,29.86,5.6,Variable,4.6,-,N/A,,Unknown,0,2014-01-24 06:30:00
2:00 PM,82.4,46.4,28,29.83,5.6,West,6.9,-,N/A,,Unknown,260,2014-01-24 07:00:00
2:30 PM,82.4,46.4,28,29.83,5.6,WSW,6.9,-,N/A,,Unknown,250,2014-01-24 07:30:00
3:00 PM,80.6,50.0,34,29.83,5.6,SW,4.6,-,N/A,,Unknown,220,2014-01-24 08:00:00
3:30 PM,80.6,50.0,34,29.83,5.6,SW,6.9,-,N/A,,Unknown,220,2014-01-24 08:30:00
4:00 PM,80.6,51.8,37,29.83,5.6,SW,6.9,-,N/A,,Unknown,230,2014-01-24 09:00:00
4:30 PM,80.6,51.8,37,29.83,5.0,SW,6.9,-,N/A,,Unknown,230,2014-01-24 09:30:00
5:00 PM,78.8,51.8,39,29.83,5.0,SSW,5.8,-,N/A,,Unknown,200,2014-01-24 10:00:00
6:00 PM,75.2,53.6,47,29.83,5.0,Variable,2.3,-,N/A,,Unknown,0,2014-01-24 11:00:00
6:30 PM,71.6,59.0,64,29.83,5.0,Variable,2.3,-,N/A,,Unknown,0,2014-01-24 11:30:00
7:00 PM,73.4,59.0,61,29.86,5.0,Variable,2.3,-,N/A,,Unknown,0,2014-01-24 12:00:00
7:30 PM,69.8,59.0,68,29.86,5.0,Variable,2.3,-,N/A,,Unknown,0,2014-01-24 12:30:00
8:00 PM,69.8,60.8,73,29.86,4.3,Calm,Calm,-,N/A,,Unknown,0,2014-01-24 13:00:00
8:30 PM,69.8,60.8,73,29.89,4.3,Calm,Calm,-,N/A,,Unknown,0,2014-01-24 13:30:00
9:00 PM,69.8,59.0,68,29.89,4.3,Calm,Calm,-,N/A,,Unknown,0,2014-01-24 14:00:00
9:30 PM,66.2,60.8,83,29.89,4.3,Calm,Calm,-,N/A,,Unknown,0,2014-01-24 14:30:00
10:00 PM,68.0,60.8,78,29.89,4.3,NE,4.6,-,N/A,,Unknown,50,2014-01-24 15:00:00
10:30 PM,66.2,60.8,83,29.89,4.3,Calm,Calm,-,N/A,,Unknown,0,2014-01-24 15:30:00
11:00 PM,66.2,60.8,83,29.89,4.3,Calm,Calm,-,N/A,,Unknown,0,2014-01-24 16:00:00
11:30 PM,66.2,60.8,83,29.89,4.3,Calm,Calm,-,N/A,,Unknown,0,2014-01-24 16:30:00